KACK/ACK METAR and TAF weather

Enter ICAO airport designator
Station Type Date Time Source
KACK METAR 2018/04/26 15:00 UTC NOAA

KACK 261500Z 22010KT 1/4SM R24/1800FT FG VV002 10/10 A2964 RMK AO2 T01000100 $


Station Type Date Time Source
KACK Decoded METAR 2018/04/26 15:00 UTC NOAA

NANTUCKET MEMORIAL AIRPORT, MA, United States (KACK) 41-15N 70-04W 16M
Apr 26, 2018 - 11:00 AM EDT / 2018.04.26 1500 UTC
Wind: from the SW (220 degrees) at 12 MPH (10 KT):0
Visibility: 1/4 mile(s):0
Sky conditions: obscured
Weather: fog
Temperature: 50.0 F (10.0 C)
Dew Point: 50.0 F (10.0 C)
Relative Humidity: 100%
Pressure (altimeter): 29.64 in. Hg (1003 hPa)
ob: KACK 261500Z 22010KT 1/4SM R24/1800FT FG VV002 10/10 A2964 RMK AO2 T01000100
cycle: 15

Station Type Date Time Source
KACK TAF 2018/04/26 14:36 UTC NOAA

TAF
AMD KACK 261333Z 2614/2712 22012KT 1/2SM FG OVC003
FM261401 22012KT 2SM BR OVC003
FM261500 23011KT 6SM BR OVC010
FM261600 23014KT P6SM BKN025
FM261700 23014G21KT P6SM BKN050
FM270600 26009KT P6SM SCT250
FM271000 23005KT P6SM SCT200


Example: see airport list